Time;durP1;ratioP1;P1;durP2;ratioP2;P2;SDS_P1;SDS_P2;PMS_P1;PMS_P2;Temp;Humidity;BMP_temperature;BMP_pressure;BME280_temperature;BME280_humidity;BME280_pressure;Samples;Min_cycle;Max_cycle;Signal;HPM_P1;HPM_P2
2023/08/22 00:00:32;;;;;;;13.68;11.35;;;;;;;-140.66;100.00;55571.53;5137233;27;20364;-72
2023/08/22 00:04:16;;;;;;;13.30;11.02;;;;;;;-140.66;100.00;55571.53;5138418;27;20107;-71
2023/08/22 00:08:00;;;;;;;14.32;11.35;;;;;;;-140.66;100.00;55571.53;5137485;27;20398;-72
2023/08/22 00:11:44;;;;;;;13.57;10.77;;;;;;;-140.66;100.00;55571.53;5137670;27;20019;-72
2023/08/22 00:15:29;;;;;;;17.75;11.00;;;;;;;-140.66;100.00;55571.53;5137700;27;20110;-72
2023/08/22 00:19:13;;;;;;;13.10;10.38;;;;;;;-140.66;100.00;55571.53;5137604;27;20509;-71
2023/08/22 00:22:58;;;;;;;11.63;10.43;;;;;;;-140.66;100.00;55571.53;5137539;27;20023;-71
2023/08/22 00:26:42;;;;;;;15.50;10.15;;;;;;;-140.66;100.00;55571.53;5137451;27;20031;-71
2023/08/22 00:30:26;;;;;;;20.70;9.88;;;;;;;-140.66;100.00;55571.53;5138196;27;20062;-71
2023/08/22 00:34:10;;;;;;;17.52;10.70;;;;;;;-140.66;100.00;55571.53;5136378;27;20023;-71
2023/08/22 00:37:54;;;;;;;16.73;10.18;;;;;;;-140.66;100.00;55571.53;5137745;27;20019;-70
2023/08/22 00:41:39;;;;;;;13.30;10.23;;;;;;;-140.66;100.00;55571.53;5136750;27;20084;-72
2023/08/22 00:45:23;;;;;;;13.48;9.68;;;;;;;-140.66;100.00;55571.53;5137083;27;20114;-73
2023/08/22 00:49:11;;;;;;;12.75;9.93;;;;;;;-140.66;100.00;55571.53;5135980;27;20480;-72
2023/08/22 00:52:56;;;;;;;11.23;9.60;;;;;;;-140.66;100.00;55571.53;5136717;27;20042;-72
2023/08/22 00:56:41;;;;;;;12.05;9.70;;;;;;;-140.66;100.00;55571.53;5136679;27;20023;-72
2023/08/22 01:00:25;;;;;;;17.58;9.82;;;;;;;-140.66;100.00;55571.53;5135254;27;20456;-71
2023/08/22 01:04:09;;;;;;;13.18;10.68;;;;;;;-140.66;100.00;55571.53;5136651;27;20050;-73
2023/08/22 01:08:03;;;;;;;16.88;10.70;;;;;;;-140.66;100.00;55571.53;5136317;27;20106;-72
2023/08/22 01:11:54;;;;;;;15.77;9.90;;;;;;;-140.66;100.00;55571.53;5136649;27;20027;-72
2023/08/22 01:15:42;;;;;;;13.85;10.85;;;;;;;-140.66;100.00;55571.53;5136374;27;20023;-72
2023/08/22 01:19:27;;;;;;;13.50;10.40;;;;;;;-140.66;100.00;55571.53;5136588;27;20348;-72
2023/08/22 01:23:11;;;;;;;14.98;10.88;;;;;;;-140.66;100.00;55571.53;5136026;27;20118;-72
2023/08/22 01:26:56;;;;;;;16.15;10.07;;;;;;;-140.66;100.00;55571.53;5135923;27;20027;-71
2023/08/22 01:31:06;;;;;;;17.13;10.80;;;;;;;-140.66;100.00;55571.53;5135663;27;20110;-72
2023/08/22 01:35:00;;;;;;;12.18;10.57;;;;;;;-140.66;100.00;55571.53;5134581;27;20030;-71
2023/08/22 01:38:45;;;;;;;17.23;10.80;;;;;;;-140.66;100.00;55571.53;5135180;27;20080;-72
2023/08/22 01:42:30;;;;;;;13.85;11.30;;;;;;;-140.66;100.00;55571.53;5135802;27;20034;-72
2023/08/22 01:46:14;;;;;;;16.00;10.95;;;;;;;-140.66;100.00;55571.53;5135688;27;20023;-72
2023/08/22 01:49:58;;;;;;;15.18;11.20;;;;;;;-140.66;100.00;55571.53;5134601;27;20370;-72
2023/08/22 01:53:43;;;;;;;15.18;11.98;;;;;;;-140.66;100.00;55571.53;5134571;27;20023;-72
2023/08/22 01:57:27;;;;;;;15.07;11.80;;;;;;;-140.66;100.00;55571.53;5134568;27;20031;-71
2023/08/22 02:01:11;;;;;;;19.33;12.52;;;;;;;-140.66;100.00;55571.53;5136710;27;20054;-71
2023/08/22 02:04:56;;;;;;;16.83;12.15;;;;;;;-140.66;100.00;55571.53;5135494;27;20456;-72
2023/08/22 02:08:40;;;;;;;12.93;11.50;;;;;;;-140.66;100.00;55571.53;5134963;27;20038;-71
2023/08/22 02:12:24;;;;;;;13.90;12.50;;;;;;;-140.66;100.00;55571.53;5135275;27;20022;-71
2023/08/22 02:16:08;;;;;;;18.58;12.48;;;;;;;-140.66;100.00;55571.53;5136136;27;20453;-72
2023/08/22 02:19:53;;;;;;;14.65;12.40;;;;;;;-140.66;100.00;55571.53;5141892;27;20018;-71
2023/08/22 02:23:37;;;;;;;15.68;12.60;;;;;;;-140.66;100.00;55571.53;5141124;27;20027;-70
2023/08/22 02:27:21;;;;;;;15.18;12.32;;;;;;;-140.66;100.00;55571.53;5138135;27;20046;-71
2023/08/22 02:31:06;;;;;;;14.52;12.38;;;;;;;-140.66;100.00;55571.53;5139197;27;20102;-71
2023/08/22 02:34:51;;;;;;;16.35;12.90;;;;;;;-140.66;100.00;55571.53;5139122;27;20038;-70
2023/08/22 02:38:35;;;;;;;15.98;12.52;;;;;;;-140.66;100.00;55571.53;5139712;27;20399;-70
2023/08/22 02:42:19;;;;;;;14.48;12.57;;;;;;;-140.66;100.00;55571.53;5149630;27;20034;-70
2023/08/22 02:46:04;;;;;;;16.67;13.15;;;;;;;-140.66;100.00;55571.53;5143877;27;20049;-74
2023/08/22 02:49:48;;;;;;;14.25;12.52;;;;;;;-140.66;100.00;55571.53;5142435;27;20465;-76
2023/08/22 02:53:32;;;;;;;20.75;13.90;;;;;;;-140.66;100.00;55571.53;5144613;28;20023;-70
2023/08/22 02:57:16;;;;;;;19.85;13.07;;;;;;;-140.66;100.00;55571.53;5123168;28;20028;-71
2023/08/22 03:01:01;;;;;;;15.88;12.68;;;;;;;-140.66;100.00;55571.53;5136700;28;20035;-71
2023/08/22 03:04:45;;;;;;;17.35;12.98;;;;;;;-140.66;100.00;55571.53;5122936;28;20039;-71
2023/08/22 03:08:29;;;;;;;16.10;13.60;;;;;;;-140.66;100.00;55571.53;5127174;28;20110;-72
2023/08/22 03:12:14;;;;;;;18.25;13.10;;;;;;;-140.66;100.00;55571.53;5118712;28;20052;-71
2023/08/22 03:15:58;;;;;;;19.90;14.15;;;;;;;-140.66;100.00;55571.53;5118454;28;20074;-73
2023/08/22 03:19:42;;;;;;;16.20;13.55;;;;;;;-140.66;100.00;55571.53;5118399;28;20373;-73
2023/08/22 03:23:26;;;;;;;20.13;13.95;;;;;;;-140.66;100.00;55571.53;5119150;28;20024;-73
2023/08/22 03:27:11;;;;;;;23.80;13.82;;;;;;;-140.66;100.00;55571.53;5118942;28;20106;-72
2023/08/22 03:30:56;;;;;;;19.45;14.50;;;;;;;-140.66;100.00;55571.53;5118087;28;20031;-73
2023/08/22 03:34:41;;;;;;;20.33;14.02;;;;;;;-140.66;100.00;55571.53;5131062;27;20111;-72
2023/08/22 03:38:25;;;;;;;15.95;13.50;;;;;;;-140.66;100.00;55571.53;5118246;28;20423;-73
2023/08/22 03:42:09;;;;;;;14.85;13.27;;;;;;;-140.66;100.00;55571.53;5117927;28;20043;-72
2023/08/22 03:45:54;;;;;;;16.10;13.93;;;;;;;-140.66;100.00;55571.53;5130964;27;20024;-72
2023/08/22 03:49:38;;;;;;;23.27;14.70;;;;;;;-140.66;100.00;55571.53;5117997;28;20038;-72
2023/08/22 03:53:22;;;;;;;19.50;14.00;;;;;;;-140.66;100.00;55571.53;5118812;28;20118;-73
2023/08/22 03:57:06;;;;;;;22.33;14.18;;;;;;;-140.66;100.00;55571.53;5117522;28;20035;-73
2023/08/22 04:00:53;;;;;;;23.63;14.57;;;;;;;-140.66;100.00;55571.53;5117224;28;20106;-71
2023/08/22 04:04:37;;;;;;;19.27;13.52;;;;;;;-140.66;100.00;55571.53;5117495;28;20045;-71
2023/08/22 04:08:21;;;;;;;24.40;13.70;;;;;;;-140.66;100.00;55571.53;5117523;28;20031;-73
2023/08/22 04:12:06;;;;;;;24.95;14.65;;;;;;;-140.66;100.00;55571.53;5117658;28;20488;-71
2023/08/22 04:15:50;;;;;;;30.25;15.90;;;;;;;-140.66;100.00;55571.53;5116200;28;20040;-71
2023/08/22 04:19:34;;;;;;;31.52;15.32;;;;;;;-140.66;100.00;55571.53;5117694;28;20027;-72
2023/08/22 04:23:19;;;;;;;28.33;15.63;;;;;;;-140.66;100.00;55571.53;5117422;28;20473;-71
2023/08/22 04:27:03;;;;;;;30.92;15.90;;;;;;;-140.66;100.00;55571.53;5117576;28;20023;-73
2023/08/22 04:30:47;;;;;;;20.33;14.75;;;;;;;-140.66;100.00;55571.53;5117386;28;20523;-71
2023/08/22 04:34:31;;;;;;;23.02;14.98;;;;;;;-140.66;100.00;55571.53;5116635;28;20035;-71
2023/08/22 04:38:16;;;;;;;21.95;15.23;;;;;;;-140.66;100.00;55571.53;5117453;28;20042;-73
2023/08/22 04:42:00;;;;;;;21.83;14.23;;;;;;;-140.66;100.00;55571.53;5117350;28;20115;-72
2023/08/22 04:45:44;;;;;;;30.65;14.93;;;;;;;-140.66;100.00;55571.53;5115823;28;20046;-72
2023/08/22 04:49:28;;;;;;;21.48;14.07;;;;;;;-140.66;100.00;55571.53;5117186;28;20136;-72
2023/08/22 04:53:13;;;;;;;22.75;14.13;;;;;;;-140.66;100.00;55571.53;5116476;28;20028;-72
2023/08/22 04:56:57;;;;;;;16.98;13.27;;;;;;;-140.66;100.00;55571.53;5130114;27;20373;-72
2023/08/22 05:00:41;;;;;;;19.05;14.25;;;;;;;-140.66;100.00;55571.53;5116993;28;20026;-70
2023/08/22 05:04:26;;;;;;;20.50;14.60;;;;;;;-140.66;100.00;55571.53;5115835;28;20123;-73
2023/08/22 05:08:13;;;;;;;20.10;14.27;;;;;;;-140.66;100.00;55571.53;5116078;28;20059;-72
2023/08/22 05:11:57;;;;;;;22.92;15.45;;;;;;;-140.66;100.00;55571.53;5118023;28;20035;-72
2023/08/22 05:15:42;;;;;;;25.52;14.95;;;;;;;-140.66;100.00;55571.53;5116734;28;20100;-72
2023/08/22 05:19:26;;;;;;;20.95;14.02;;;;;;;-140.66;100.00;55571.53;5115795;28;20035;-72
2023/08/22 05:23:10;;;;;;;23.50;13.77;;;;;;;-140.66;100.00;55571.53;5116579;28;20345;-72
2023/08/22 05:26:55;;;;;;;19.02;14.52;;;;;;;-140.66;100.00;55571.53;5115839;28;20016;-73
2023/08/22 05:30:39;;;;;;;19.65;13.90;;;;;;;-140.66;100.00;55571.53;5115987;28;20119;-72
2023/08/22 05:34:23;;;;;;;16.33;14.20;;;;;;;-140.66;100.00;55571.53;5115639;28;20028;-72
2023/08/22 05:38:08;;;;;;;20.75;14.88;;;;;;;-140.66;100.00;55571.53;5116314;28;20059;-72
2023/08/22 05:41:52;;;;;;;20.33;14.00;;;;;;;-140.66;100.00;55571.53;5115688;28;20093;-72
2023/08/22 05:45:36;;;;;;;22.48;14.40;;;;;;;-140.66;100.00;55571.53;5115469;28;20072;-71
2023/08/22 05:49:20;;;;;;;22.92;15.43;;;;;;;-140.66;100.00;55571.53;5115653;28;20385;-72
2023/08/22 05:53:04;;;;;;;20.85;15.02;;;;;;;-140.66;100.00;55571.53;5114769;28;20024;-71
2023/08/22 05:56:49;;;;;;;23.98;15.07;;;;;;;-140.66;100.00;55571.53;5115013;28;20051;-71
2023/08/22 06:00:34;;;;;;;23.65;16.10;;;;;;;-140.66;100.00;55571.53;5115004;28;20460;-72
2023/08/22 06:04:19;;;;;;;21.48;16.60;;;;;;;-140.66;100.00;55571.53;5114838;28;20123;-72
2023/08/22 06:08:03;;;;;;;20.83;15.60;;;;;;;-140.66;100.00;55571.53;5115130;28;20476;-72
2023/08/22 06:11:47;;;;;;;22.98;15.85;;;;;;;-140.66;100.00;55571.53;5114874;28;20028;-73
2023/08/22 06:15:31;;;;;;;22.17;16.65;;;;;;;-140.66;100.00;55571.53;5128071;27;20146;-72
2023/08/22 06:19:16;;;;;;;25.75;16.92;;;;;;;-140.66;100.00;55571.53;5115207;28;20114;-72
2023/08/22 06:23:00;;;;;;;25.50;15.60;;;;;;;-140.66;100.00;55571.53;5116240;28;20078;-72
2023/08/22 06:26:48;;;;;;;23.23;17.00;;;;;;;-140.66;100.00;55571.53;5113788;28;20085;-72
2023/08/22 06:30:45;;;;;;;;;;;;;;;;;;;;;
2023/08/22 06:34:30;;;;;;;21.67;16.48;;;;;;;-140.66;100.00;55571.53;5116071;28;20473;-72
2023/08/22 06:38:14;;;;;;;17.75;15.75;;;;;;;-140.66;100.00;55571.53;5114290;28;20084;-71
2023/08/22 06:42:05;;;;;;;25.60;16.17;;;;;;;-140.66;100.00;55571.53;5114858;28;20031;-71
2023/08/22 06:45:49;;;;;;;21.90;16.48;;;;;;;-140.66;100.00;55571.53;5113713;28;20043;-71
2023/08/22 06:49:33;;;;;;;24.13;16.60;;;;;;;-140.66;100.00;55571.53;5127279;27;20184;-73
2023/08/22 06:53:18;;;;;;;20.85;15.68;;;;;;;-140.66;100.00;55571.53;5114711;28;20024;-73
2023/08/22 06:57:02;;;;;;;19.58;16.00;;;;;;;-140.66;100.00;55571.53;5114136;28;20038;-72
2023/08/22 07:00:49;;;;;;;18.55;15.63;;;;;;;-140.66;100.00;55571.53;5127839;28;20024;-73
2023/08/22 07:04:37;;;;;;;21.38;15.70;;;;;;;-140.66;100.00;55571.53;5113390;28;20020;-73
2023/08/22 07:08:21;;;;;;;25.85;16.10;;;;;;;-140.66;100.00;55571.53;5114516;28;20085;-71
2023/08/22 07:12:08;;;;;;;19.15;14.98;;;;;;;-140.66;100.00;55571.53;5115287;28;20361;-73
2023/08/22 07:15:58;;;;;;;21.35;15.98;;;;;;;-140.66;100.00;55571.53;5128445;28;20423;-72
2023/08/22 07:19:43;;;;;;;20.95;15.30;;;;;;;-140.66;100.00;55571.53;5114441;28;20057;-72
2023/08/22 07:23:27;;;;;;;24.45;16.15;;;;;;;-140.66;100.00;55571.53;5116956;28;20042;-73
2023/08/22 07:27:18;;;;;;;20.63;16.17;;;;;;;-140.66;100.00;55571.53;5119187;28;20037;-73
2023/08/22 07:31:06;;;;;;;20.52;16.13;;;;;;;-140.66;100.00;55571.53;5116970;28;20076;-73
2023/08/22 07:34:50;;;;;;;23.33;15.90;;;;;;;-140.66;100.00;55571.53;5117188;28;20059;-73
2023/08/22 07:38:35;;;;;;;19.80;16.45;;;;;;;-140.66;100.00;55571.53;5124524;28;20103;-72
2023/08/22 07:42:19;;;;;;;19.73;15.73;;;;;;;-140.66;100.00;55571.53;5114209;28;20019;-72
2023/08/22 07:46:09;;;;;;;21.45;15.65;;;;;;;-140.66;100.00;55571.53;5127765;28;20422;-72
2023/08/22 07:49:53;;;;;;;21.70;14.95;;;;;;;-140.66;100.00;55571.53;5115014;28;20043;-73
2023/08/22 07:53:41;;;;;;;17.35;15.43;;;;;;;-140.66;100.00;55571.53;5118568;28;20039;-72
2023/08/22 07:57:28;;;;;;;18.42;15.48;;;;;;;-140.66;100.00;55571.53;5117866;28;20023;-72
2023/08/22 08:01:13;;;;;;;22.17;15.63;;;;;;;-140.66;100.00;55571.53;5118744;28;20023;-73
2023/08/22 08:04:57;;;;;;;19.05;16.30;;;;;;;-140.66;100.00;55571.53;5118297;28;20040;-73
2023/08/22 08:08:41;;;;;;;19.50;15.15;;;;;;;-140.66;100.00;55571.53;5117156;28;20027;-74
2023/08/22 08:12:31;;;;;;;22.42;15.98;;;;;;;-140.66;100.00;55571.53;5117189;28;20016;-72
2023/08/22 08:16:16;;;;;;;21.17;14.48;;;;;;;-140.66;100.00;55571.53;5120411;28;20446;-72
2023/08/22 08:20:04;;;;;;;20.25;15.48;;;;;;;-140.66;100.00;55571.53;5118560;28;20024;-72
2023/08/22 08:23:49;;;;;;;18.20;14.88;;;;;;;-140.66;100.00;55571.53;5117700;28;20400;-73
2023/08/22 08:27:35;;;;;;;15.75;14.15;;;;;;;-140.66;100.00;55571.53;5117122;28;20028;-73
2023/08/22 08:31:20;;;;;;;19.77;15.13;;;;;;;-140.66;100.00;55571.53;5118216;28;20454;-73
2023/08/22 08:35:04;;;;;;;17.48;14.40;;;;;;;-140.66;100.00;55571.53;5116770;28;20038;-73
2023/08/22 08:38:49;;;;;;;19.88;14.48;;;;;;;-140.66;100.00;55571.53;5117431;28;20058;-73
2023/08/22 08:42:36;;;;;;;18.33;14.35;;;;;;;-140.66;100.00;55571.53;5117629;28;20020;-73
2023/08/22 08:46:25;;;;;;;16.60;14.25;;;;;;;-140.66;100.00;55571.53;5118485;28;20116;-73
2023/08/22 08:50:10;;;;;;;18.50;13.48;;;;;;;-140.66;100.00;55571.53;5117005;28;20104;-73
2023/08/22 08:53:55;;;;;;;15.55;13.63;;;;;;;-140.66;100.00;55571.53;5116319;28;20128;-72
2023/08/22 08:57:42;;;;;;;20.13;14.52;;;;;;;-140.66;100.00;55571.53;5117763;28;20323;-73
2023/08/22 09:01:29;;;;;;;18.20;14.05;;;;;;;-140.66;100.00;55571.53;5117355;28;20362;-72
2023/08/22 09:05:18;;;;;;;15.40;13.82;;;;;;;-140.66;100.00;55571.53;5117185;28;20352;-74
2023/08/22 09:09:16;;;;;;;15.23;12.82;;;;;;;-140.66;100.00;55571.53;5117047;28;20036;-72
2023/08/22 09:13:05;;;;;;;21.65;12.90;;;;;;;-140.66;100.00;55571.53;5116980;28;20023;-72
2023/08/22 09:16:49;;;;;;;18.23;12.48;;;;;;;-140.66;100.00;55571.53;5129524;27;20537;-73
2023/08/22 09:20:34;;;;;;;17.00;12.90;;;;;;;-140.66;100.00;55571.53;5129786;27;20059;-72
2023/08/22 09:24:25;;;;;;;27.95;12.90;;;;;;;-140.66;100.00;55571.53;5115820;28;20028;-73
2023/08/22 09:28:10;;;;;;;13.30;11.93;;;;;;;-140.66;100.00;55571.53;5116148;28;20396;-74
2023/08/22 09:32:02;;;;;;;15.80;11.95;;;;;;;-140.66;100.00;55571.53;5129176;27;20346;-72
2023/08/22 09:35:54;;;;;;;20.98;12.43;;;;;;;-140.66;100.00;55571.53;5129217;27;20020;-73
2023/08/22 09:39:53;;;;;;;14.77;11.57;;;;;;;-140.66;100.00;55571.53;5115764;28;20053;-73
2023/08/22 09:43:39;;;;;;;15.63;11.13;;;;;;;-140.66;100.00;55571.53;5114033;28;20468;-74
2023/08/22 09:47:28;;;;;;;16.20;11.60;;;;;;;-140.66;100.00;55571.53;5115868;28;20059;-73
2023/08/22 09:51:19;;;;;;;11.25;10.05;;;;;;;-140.66;100.00;55571.53;5115309;28;20042;-74
2023/08/22 09:55:06;;;;;;;14.63;10.05;;;;;;;-140.66;100.00;55571.53;5116824;28;20104;-72
2023/08/22 09:58:52;;;;;;;12.82;11.00;;;;;;;-140.66;100.00;55571.53;5114887;28;20027;-73
2023/08/22 10:02:37;;;;;;;16.70;8.43;;;;;;;-140.66;100.00;55571.53;5115448;28;20019;-73
2023/08/22 10:06:29;;;;;;;13.10;8.93;;;;;;;-140.66;100.00;55571.53;5116258;28;20016;-72
2023/08/22 10:10:17;;;;;;;11.15;8.57;;;;;;;-140.66;100.00;55571.53;5116268;28;20027;-74
2023/08/22 10:14:03;;;;;;;18.05;9.77;;;;;;;-140.66;100.00;55571.53;5116419;28;20031;-72
2023/08/22 10:17:52;;;;;;;9.55;8.57;;;;;;;-140.66;100.00;55571.53;5116044;28;20031;-74
2023/08/22 10:21:46;;;;;;;12.43;8.93;;;;;;;-140.66;100.00;55571.53;5115523;28;20016;-72
2023/08/22 10:25:46;;;;;;;16.25;8.20;;;;;;;-140.66;100.00;55571.53;5115148;28;20034;-71
2023/08/22 10:30:08;;;;;;;12.85;8.63;;;;;;;-140.66;100.00;55571.53;5114479;28;20051;-73
2023/08/22 10:34:03;;;;;;;11.77;9.50;;;;;;;-140.66;100.00;55571.53;5114953;28;20035;-73
2023/08/22 10:38:00;;;;;;;11.70;9.25;;;;;;;-140.66;100.00;55571.53;5114445;28;20027;-71
2023/08/22 10:41:54;;;;;;;12.10;9.65;;;;;;;-140.66;100.00;55571.53;5113714;28;20023;-73
2023/08/22 10:45:49;;;;;;;11.98;9.55;;;;;;;-140.66;100.00;55571.53;5113682;28;20027;-73
2023/08/22 10:49:38;;;;;;;10.65;9.55;;;;;;;-140.66;100.00;55571.53;5115888;28;20054;-72
2023/08/22 10:53:29;;;;;;;15.63;9.82;;;;;;;-140.66;100.00;55571.53;5115186;28;20059;-72
2023/08/22 10:57:23;;;;;;;12.48;9.93;;;;;;;-140.66;100.00;55571.53;5114741;28;20019;-71
2023/08/22 11:01:17;;;;;;;11.80;9.32;;;;;;;-140.66;100.00;55571.53;5114754;28;20055;-73
2023/08/22 11:05:11;;;;;;;16.23;9.57;;;;;;;-140.66;100.00;55571.53;5113867;28;20037;-72
2023/08/22 11:08:56;;;;;;;12.65;10.05;;;;;;;-140.66;100.00;55571.53;5114630;28;20433;-71
2023/08/22 11:12:46;;;;;;;14.98;9.70;;;;;;;-140.66;100.00;55571.53;5114734;28;20116;-72
2023/08/22 11:16:33;;;;;;;15.63;10.32;;;;;;;-140.66;100.00;55571.53;5115873;28;20358;-72
2023/08/22 11:20:20;;;;;;;12.65;10.00;;;;;;;-140.66;100.00;55571.53;5116080;28;20514;-73
2023/08/22 11:24:07;;;;;;;12.13;9.68;;;;;;;-140.66;100.00;55571.53;5115692;28;20345;-73
2023/08/22 11:27:52;;;;;;;16.23;10.68;;;;;;;-140.66;100.00;55571.53;5117794;28;20066;-72
2023/08/22 11:31:54;;;;;;;16.30;10.43;;;;;;;-140.66;100.00;55571.53;5118392;28;20088;-71
2023/08/22 11:35:41;;;;;;;12.38;9.85;;;;;;;-140.66;100.00;55571.53;5119840;28;20038;-71
2023/08/22 11:39:33;;;;;;;16.23;10.18;;;;;;;-140.66;100.00;55571.53;5119743;28;20110;-72
2023/08/22 11:43:21;;;;;;;11.30;9.68;;;;;;;-140.66;100.00;55571.53;5118725;28;20051;-72
2023/08/22 11:47:11;;;;;;;11.32;9.85;;;;;;;-140.66;100.00;55571.53;5118363;28;20023;-72
2023/08/22 11:50:55;;;;;;;12.88;9.80;;;;;;;-140.66;100.00;55571.53;5117871;28;20035;-72
2023/08/22 11:55:10;;;;;;;16.48;9.73;;;;;;;-140.66;100.00;55571.53;5117913;28;20511;-73
2023/08/22 11:59:23;;;;;;;18.35;10.13;;;;;;;-140.66;100.00;55571.53;5122001;28;20059;-73
2023/08/22 12:03:14;;;;;;;16.30;9.70;;;;;;;-140.66;100.00;55571.53;5119405;28;20349;-72
2023/08/22 12:07:11;;;;;;;17.52;9.23;;;;;;;-140.66;100.00;55571.53;5118067;27;20051;-74
2023/08/22 12:11:01;;;;;;;14.38;9.45;;;;;;;-140.66;100.00;55571.53;5121341;28;20039;-72
2023/08/22 12:14:56;;;;;;;10.00;9.00;;;;;;;-140.66;100.00;55571.53;5120605;28;20039;-73
2023/08/22 12:23:43;;;;;;;14.85;10.10;;;;;;;-140.66;100.00;55571.53;5118449;28;20015;-73
2023/08/22 12:27:50;;;;;;;12.15;9.80;;;;;;;-140.66;100.00;55571.53;5119447;28;20024;-73
2023/08/22 12:31:47;;;;;;;11.65;8.90;;;;;;;-140.66;100.00;55571.53;5121206;28;20035;-74
2023/08/22 12:35:32;;;;;;;10.05;9.05;;;;;;;-140.66;100.00;55571.53;5119432;28;20027;-73
2023/08/22 12:39:26;;;;;;;14.00;8.85;;;;;;;-140.66;100.00;55571.53;5119051;28;20038;-74
2023/08/22 12:43:45;;;;;;;12.63;8.55;;;;;;;-140.66;100.00;55571.53;5118955;28;20016;-72
2023/08/22 12:51:44;;;;;;;14.55;8.63;;;;;;;-140.66;100.00;55571.53;5110027;28;20031;-71
2023/08/22 12:56:07;;;;;;;14.48;8.50;;;;;;;-140.66;100.00;55571.53;5119321;28;20024;-71
2023/08/22 13:00:28;;;;;;;12.10;9.00;;;;;;;-140.66;100.00;55571.53;5121223;28;20037;-74
2023/08/22 13:04:25;;;;;;;11.32;9.23;;;;;;;-140.66;100.00;55571.53;5125272;28;20023;-73
2023/08/22 13:08:48;;;;;;;13.15;8.35;;;;;;;-140.66;100.00;55571.53;5117822;28;20339;-72
2023/08/22 13:12:37;;;;;;;12.07;8.80;;;;;;;-140.66;100.00;55571.53;5119845;28;20045;-72
2023/08/22 13:16:24;;;;;;;15.80;8.70;;;;;;;-140.66;100.00;55571.53;5119918;28;20467;-72
2023/08/22 13:20:09;;;;;;;38.97;10.23;;;;;;;-140.66;100.00;55571.53;5118357;28;20037;-73
2023/08/22 13:23:54;;;;;;;10.77;8.48;;;;;;;-140.66;100.00;55571.53;5115669;28;20016;-73
2023/08/22 13:27:39;;;;;;;12.43;9.00;;;;;;;-140.66;100.00;55571.53;5116642;28;20361;-74
2023/08/22 13:31:26;;;;;;;14.48;8.18;;;;;;;-140.66;100.00;55571.53;5107982;28;20034;-73
2023/08/22 13:35:14;;;;;;;9.65;8.52;;;;;;;-140.66;100.00;55571.53;5115769;28;20032;-72
2023/08/22 13:39:05;;;;;;;9.93;8.40;;;;;;;-140.66;100.00;55571.53;5117064;28;20124;-71
2023/08/22 13:42:49;;;;;;;10.93;8.55;;;;;;;-140.66;100.00;55571.53;5116003;28;20355;-72
2023/08/22 13:46:36;;;;;;;12.05;7.68;;;;;;;-140.66;100.00;55571.53;5115307;28;20472;-72
2023/08/22 13:50:24;;;;;;;17.15;9.00;;;;;;;-140.66;100.00;55571.53;5115091;28;20032;-74
2023/08/22 13:54:29;;;;;;;9.52;8.25;;;;;;;-140.66;100.00;55571.53;5117573;28;20062;-72
2023/08/22 13:58:14;;;;;;;12.68;8.45;;;;;;;-140.66;100.00;55571.53;5115189;28;20465;-73
2023/08/22 14:01:58;;;;;;;11.80;7.82;;;;;;;-140.66;100.00;55571.53;5115832;28;20444;-73
2023/08/22 14:05:42;;;;;;;12.88;8.30;;;;;;;-140.66;100.00;55571.53;5116264;28;20027;-72
2023/08/22 14:09:33;;;;;;;11.68;9.00;;;;;;;-140.66;100.00;55571.53;5114815;28;20027;-72
2023/08/22 14:13:20;;;;;;;9.48;7.70;;;;;;;-140.66;100.00;55571.53;5115345;28;20057;-73
2023/08/22 14:17:07;;;;;;;9.10;8.20;;;;;;;-140.66;100.00;55571.53;5128981;27;20023;-72
2023/08/22 14:20:57;;;;;;;12.48;7.95;;;;;;;-140.66;100.00;55571.53;5115319;28;20016;-73
2023/08/22 14:24:42;;;;;;;9.43;8.13;;;;;;;-140.66;100.00;55571.53;5114705;28;20124;-73
2023/08/22 14:28:28;;;;;;;9.70;7.82;;;;;;;-140.66;100.00;55571.53;5115239;28;20019;-74
2023/08/22 14:32:13;;;;;;;10.48;8.00;;;;;;;-140.66;100.00;55571.53;5113655;28;20108;-71
2023/08/22 14:35:57;;;;;;;9.05;8.13;;;;;;;-140.66;100.00;55571.53;5114093;28;20027;-73
2023/08/22 14:39:41;;;;;;;12.77;8.07;;;;;;;-140.66;100.00;55571.53;5114081;28;20468;-72
2023/08/22 14:43:29;;;;;;;10.43;8.30;;;;;;;-140.66;100.00;55571.53;5114547;28;20020;-72
2023/08/22 14:47:13;;;;;;;12.48;7.97;;;;;;;-140.66;100.00;55571.53;5114984;28;20114;-71
2023/08/22 14:50:57;;;;;;;10.45;7.57;;;;;;;-140.66;100.00;55571.53;5127358;27;20019;-70
2023/08/22 14:54:41;;;;;;;13.20;8.13;;;;;;;-140.66;100.00;55571.53;5114499;28;20039;-74
2023/08/22 14:58:26;;;;;;;11.43;8.20;;;;;;;-140.66;100.00;55571.53;5113932;28;20118;-72
2023/08/22 15:02:11;;;;;;;12.63;8.18;;;;;;;-140.66;100.00;55571.53;5120252;28;20036;-73
2023/08/22 15:05:55;;;;;;;13.68;8.10;;;;;;;-140.66;100.00;55571.53;5120240;28;20457;-73
2023/08/22 15:09:39;;;;;;;10.05;8.30;;;;;;;-140.66;100.00;55571.53;5133315;27;20059;-72
2023/08/22 15:13:23;;;;;;;9.10;8.10;;;;;;;-140.66;100.00;55571.53;5120360;28;20027;-72
2023/08/22 15:17:08;;;;;;;14.02;8.63;;;;;;;-140.66;100.00;55571.53;5121104;28;20475;-72
2023/08/22 15:20:53;;;;;;;9.73;8.30;;;;;;;-140.66;100.00;55571.53;5121579;28;20036;-73
2023/08/22 15:24:41;;;;;;;12.60;7.93;;;;;;;-140.66;100.00;55571.53;5121369;28;20027;-71
2023/08/22 15:28:26;;;;;;;11.68;8.60;;;;;;;-140.66;100.00;55571.53;5120519;28;20035;-73
2023/08/22 15:32:11;;;;;;;10.68;8.70;;;;;;;-140.66;100.00;55571.53;5120412;28;20361;-72
2023/08/22 15:36:02;;;;;;;12.52;8.70;;;;;;;-140.66;100.00;55571.53;5120873;28;20028;-73
2023/08/22 15:39:46;;;;;;;10.55;8.38;;;;;;;-140.66;100.00;55571.53;5120882;28;20107;-73
2023/08/22 15:43:34;;;;;;;14.38;8.30;;;;;;;-140.66;100.00;55571.53;5133380;27;20016;-72
2023/08/22 15:47:19;;;;;;;15.52;8.25;;;;;;;-140.66;100.00;55571.53;5121052;28;20056;-72
2023/08/22 15:51:04;;;;;;;9.45;7.63;;;;;;;-140.66;100.00;55571.53;5120592;28;20066;-72
2023/08/22 15:54:48;;;;;;;13.55;7.93;;;;;;;-140.66;100.00;55571.53;5118912;28;20115;-72
2023/08/22 15:58:32;;;;;;;15.07;8.82;;;;;;;-140.66;100.00;55571.53;5120234;28;20043;-72
2023/08/22 16:02:18;;;;;;;14.15;8.15;;;;;;;-140.66;100.00;55571.53;5120596;28;20062;-72
2023/08/22 16:06:02;;;;;;;12.25;8.90;;;;;;;-140.66;100.00;55571.53;5120671;28;20035;-72
2023/08/22 16:09:47;;;;;;;11.40;8.57;;;;;;;-140.66;100.00;55571.53;5119903;28;20089;-74
2023/08/22 16:13:31;;;;;;;18.27;8.85;;;;;;;-140.66;100.00;55571.53;5116567;28;20127;-73
2023/08/22 16:17:15;;;;;;;12.15;8.50;;;;;;;-140.66;100.00;55571.53;5117084;28;20035;-72
2023/08/22 16:20:59;;;;;;;14.15;8.35;;;;;;;-140.66;100.00;55571.53;5117064;28;20114;-72
2023/08/22 16:24:43;;;;;;;17.95;8.27;;;;;;;-140.66;100.00;55571.53;5116220;28;20081;-72
2023/08/22 16:28:28;;;;;;;12.18;8.15;;;;;;;-140.66;100.00;55571.53;5116174;28;20031;-72
2023/08/22 16:32:12;;;;;;;12.88;8.55;;;;;;;-140.66;100.00;55571.53;5115868;28;20110;-73
2023/08/22 16:35:56;;;;;;;12.55;8.45;;;;;;;-140.66;100.00;55571.53;5115716;28;20051;-72
2023/08/22 16:39:40;;;;;;;12.80;8.27;;;;;;;-140.66;100.00;55571.53;5129800;27;20069;-72
2023/08/22 16:43:25;;;;;;;14.77;8.73;;;;;;;-140.66;100.00;55571.53;5116290;28;20514;-73
2023/08/22 16:47:09;;;;;;;10.27;8.35;;;;;;;-140.66;100.00;55571.53;5115747;28;20033;-73
2023/08/22 16:50:54;;;;;;;12.63;8.68;;;;;;;-140.66;100.00;55571.53;5116427;28;20373;-71
2023/08/22 16:54:38;;;;;;;16.52;9.57;;;;;;;-140.66;100.00;55571.53;5116222;28;20085;-73
2023/08/22 16:58:22;;;;;;;14.40;9.00;;;;;;;-140.66;100.00;55571.53;5114996;28;20093;-72
2023/08/22 17:02:07;;;;;;;23.45;8.77;;;;;;;-140.66;100.00;55571.53;5115565;28;20047;-74
2023/08/22 17:05:51;;;;;;;18.00;9.75;;;;;;;-140.66;100.00;55571.53;5116699;28;20107;-73